Historique des mesures à Cassis (13260), France
Quotidien Résumé Novembre 6, 2017 Unités:  Métrique    US   Métrique/US
« Précédent (Jour)
Suivant (Jour) »
Quotidien Hebdomadaire Mensuel Annuel Période au choix
  Maximum: Minimum: Moyenne:
Température: TemperatureC °C 8.5 °C 9.6 °C
Point de rosée: DewpointC °C 0.1 °C 1.2 °C
Humidité: Humidity % 51 % 52 %
Vitesse du vent: 0 km/h 0 km/h 21.6 km/h
Rafales: 0 km/h - -
Vent:- - SSE
Pression: PressurehPa hPa 1002.9 hPa -
Précipitations: 0.0 mm    
Historical Graphs
 
 
Mesures pour : Novembre 6, 2017
Heure Temperature Point de rosée Pression Vent Vitesse du vent Rafales Humidité Pluie (par heure) Conditions
TemperatureC °C DewpointC °C PressurehPa hPa Calm     Humidity % HourlyPrecipMM mm SoftwareType W/m2
00:11 9.3 °C 1.7 °C 1007.3 hPa NW 47.3 km/h 47.3 km/h 59 % 0.0 mm open2300-1.11 W/m2
01:10 9.1 °C 1.6 °C 1006.3 hPa WNW 38.3 km/h 66.6 km/h 59 % 0.0 mm open2300-1.11 W/m2
02:11 9.3 °C 1.2 °C 1006.0 hPa North 17.4 km/h 35.2 km/h 57 % 0.0 mm open2300-1.11 W/m2
03:10 9.1 °C 1.0 °C 1005.0 hPa WNW 57.9 km/h 93.7 km/h 57 % 0.0 mm open2300-1.11 W/m2
05:10 8.9 °C 0.8 °C 1002.9 hPa North 23 km/h 39.9 km/h 57 % 0.0 mm open2300-1.11 W/m2
06:11 8.9 °C 0.8 °C 1003.3 hPa NW 52.8 km/h 52.8 km/h 57 % 0.0 mm open2300-1.11 W/m2
07:10 8.9 °C 0.1 °C 1003.6 hPa North 30.7 km/h 48.6 km/h 54 % 0.0 mm open2300-1.11 W/m2
08:11 8.5 °C 0.2 °C 1003.9 hPa NW 36.5 km/h 48.1 km/h 56 % 0.0 mm open2300-1.11 W/m2
09:10 8.6 °C 0.3 °C 1003.9 hPa NNW 24.8 km/h 62 km/h 56 % 0.0 mm open2300-1.11 W/m2
10:11 9.1 °C 0.5 °C 1003.3 hPa North 27.7 km/h 38.8 km/h 55 % 0.0 mm open2300-1.11 W/m2
11:10 9.5 °C 0.6 °C 1003.9 hPa West 41.2 km/h 41.2 km/h 54 % 0.0 mm open2300-1.11 W/m2
12:11 10.1 °C 1.2 °C 1003.9 hPa NNW 17.9 km/h 17.9 km/h 54 % 0.0 mm open2300-1.11 W/m2
13:10 11.1 °C 1.6 °C 1003.6 hPa North 17.9 km/h 17.9 km/h 52 % 0.0 mm open2300-1.11 W/m2
14:11 11.5 °C 2.2 °C 1003.9 hPa Calm     53 % 0.0 mm open2300-1.11 W/m2
15:10 11.4 °C 1.8 °C 1003.6 hPa North 30.7 km/h 30.7 km/h 52 % 0.0 mm open2300-1.11 W/m2
16:11 11.5 °C 1.7 °C 1003.9 hPa WNW 9.8 km/h 43.5 km/h 51 % 0.0 mm open2300-1.11 W/m2
17:10 11.5 °C 1.7 °C 1004.6 hPa North 13.2 km/h 18.7 km/h 51 % 0.0 mm open2300-1.11 W/m2
18:11 11.2 °C 1.7 °C 1005.3 hPa North 12.2 km/h 27.7 km/h 52 % 0.0 mm open2300-1.11 W/m2
19:10 10.9 °C 1.7 °C 1006.0 hPa Calm   16.9 km/h 53 % 0.0 mm open2300-1.11 W/m2
20:11 10.7 °C 1.7 °C 1006.3 hPa NE 16.3 km/h 26.7 km/h 54 % 0.0 mm open2300-1.11 W/m2
21:10 10.5 °C 1.6 °C 1006.7 hPa Calm     54 % 0.0 mm open2300-1.11 W/m2
22:11 10.8 °C 1.6 °C 1007.3 hPa Calm   12.2 km/h 53 % 0.0 mm open2300-1.11 W/m2
23:10 10.7 °C 1.5 °C 1008.0 hPa Calm     53 % 0.0 mm open2300-1.11 W/m2
Observations météo à CASSIS
WU-History script by Weather Underground - 1 mb